Accueil
METAR-TAF:

METAR-TAF

Aéroports :

Aéroport de Pula

Pula, Croatie

latitude: 44-54N, longitude: 013-55E, altitude: 63 m

Observation

Le bulletin a été fait il y a 41 minutes, à 16:30 UTC
Vent 5 kt de est, variant entre est/nord-est et sud-est
Température 20°C
Humidité 78%
Pression 1011 hPa
Visibilité 10 km ou plus
pas de nuages en-dessous de 1500 mètres et pas de cumulonimbus.

METAR: LDPL 191630Z 10005KT 070V130 CAVOK 20/16 Q1011 NOSIG

Heure: 19:11 (17:11 UTC)

Prévision

Le bulletin a été fait il y a 5 heures et 46 minutes, à 11:25 UTC
Prévision valable du 19 à 12 UTC au 20 à 12 UTC
Vent 8 kt de sud/sud-est
Visibilité 10 km ou plus
Nuages épars à une hauteur de 1500 ft
Nuages épars à une hauteur de 2500 ft

TAF: LDPL 191125Z 1912/2012 15008KT 9999 SCT015 SCT025 TX24/1914Z TN14/2004Z

Observations et prévisions météorologiques de plus de 4000 aéroports (messages METAR et TAF).

Les stations disponibles sont représentées par des disques jaunes et rouges sur la carte.

Passer la souris dessus pour voir le nom de la station.

Cliquer dessus pour voir les observations et prévisions météorologiques.

Pour changer de carte: cliquez sur les boutons verts avec une croix noire pour zoomer, sur le bouton vert avec un tiret pour effectuer un zoom arrière, ou sur les flèches vertes pour les cartes adjacentes.


METAR-TAF: